sensor_id;sensor_type;location;lat;lon;timestamp;P1;durP1;ratioP1;P2;durP2;ratioP2
54388;SDS011;40975;50.390;8.640;2023-03-16T00:02:15;6.72;;;2.33;;
54388;SDS011;40975;50.390;8.640;2023-03-16T00:04:41;3.20;;;2.00;;
54388;SDS011;40975;50.390;8.640;2023-03-16T00:07:07;3.03;;;1.48;;
54388;SDS011;40975;50.390;8.640;2023-03-16T00:09:34;5.03;;;2.47;;
54388;SDS011;40975;50.390;8.640;2023-03-16T00:12:04;4.10;;;1.80;;
54388;SDS011;40975;50.390;8.640;2023-03-16T00:14:31;3.67;;;2.13;;
54388;SDS011;40975;50.390;8.640;2023-03-16T00:16:59;5.22;;;2.05;;
54388;SDS011;40975;50.390;8.640;2023-03-16T00:19:25;4.20;;;1.85;;
54388;SDS011;40975;50.390;8.640;2023-03-16T00:21:50;5.35;;;2.30;;
54388;SDS011;40975;50.390;8.640;2023-03-16T00:24:16;6.25;;;1.83;;
54388;SDS011;40975;50.390;8.640;2023-03-16T00:26:43;4.75;;;2.38;;
54388;SDS011;40975;50.390;8.640;2023-03-16T00:29:12;4.00;;;2.33;;
54388;SDS011;40975;50.390;8.640;2023-03-16T00:31:38;3.15;;;1.95;;
54388;SDS011;40975;50.390;8.640;2023-03-16T00:34:04;3.22;;;1.77;;
54388;SDS011;40975;50.390;8.640;2023-03-16T00:36:29;3.90;;;1.88;;
54388;SDS011;40975;50.390;8.640;2023-03-16T00:38:57;4.82;;;1.98;;
54388;SDS011;40975;50.390;8.640;2023-03-16T00:41:23;2.55;;;1.92;;
54388;SDS011;40975;50.390;8.640;2023-03-16T00:43:49;4.47;;;1.75;;
54388;SDS011;40975;50.390;8.640;2023-03-16T00:46:17;5.00;;;2.38;;
54388;SDS011;40975;50.390;8.640;2023-03-16T00:48:43;3.17;;;1.98;;
54388;SDS011;40975;50.390;8.640;2023-03-16T00:51:11;5.68;;;1.88;;
54388;SDS011;40975;50.390;8.640;2023-03-16T00:53:40;2.25;;;1.50;;
54388;SDS011;40975;50.390;8.640;2023-03-16T00:56:06;3.55;;;1.92;;
54388;SDS011;40975;50.390;8.640;2023-03-16T00:58:33;3.17;;;1.63;;
54388;SDS011;40975;50.390;8.640;2023-03-16T01:01:33;6.35;;;1.90;;
54388;SDS011;40975;50.390;8.640;2023-03-16T01:03:52;4.40;;;1.98;;
54388;SDS011;40975;50.390;8.640;2023-03-16T01:06:20;6.43;;;2.15;;
54388;SDS011;40975;50.390;8.640;2023-03-16T01:08:46;5.57;;;2.60;;
54388;SDS011;40975;50.390;8.640;2023-03-16T01:11:13;6.03;;;2.08;;
54388;SDS011;40975;50.390;8.640;2023-03-16T01:13:41;6.57;;;2.45;;
54388;SDS011;40975;50.390;8.640;2023-03-16T01:16:07;5.85;;;2.45;;
54388;SDS011;40975;50.390;8.640;2023-03-16T01:18:33;4.47;;;2.25;;
54388;SDS011;40975;50.390;8.640;2023-03-16T01:20:59;6.88;;;2.65;;
54388;SDS011;40975;50.390;8.640;2023-03-16T01:23:31;3.70;;;2.33;;
54388;SDS011;40975;50.390;8.640;2023-03-16T01:25:57;9.45;;;2.55;;
54388;SDS011;40975;50.390;8.640;2023-03-16T01:28:24;4.75;;;2.53;;
54388;SDS011;40975;50.390;8.640;2023-03-16T01:30:51;3.63;;;2.38;;
54388;SDS011;40975;50.390;8.640;2023-03-16T01:33:19;6.95;;;2.20;;
54388;SDS011;40975;50.390;8.640;2023-03-16T01:35:52;4.35;;;2.08;;
54388;SDS011;40975;50.390;8.640;2023-03-16T01:38:22;3.83;;;1.80;;
54388;SDS011;40975;50.390;8.640;2023-03-16T01:40:48;3.47;;;1.77;;
54388;SDS011;40975;50.390;8.640;2023-03-16T01:43:15;2.55;;;1.42;;
54388;SDS011;40975;50.390;8.640;2023-03-16T01:48:42;2.88;;;1.50;;
54388;SDS011;40975;50.390;8.640;2023-03-16T01:53:53;4.00;;;1.50;;
54388;SDS011;40975;50.390;8.640;2023-03-16T01:56:24;2.47;;;1.88;;
54388;SDS011;40975;50.390;8.640;2023-03-16T01:58:51;3.30;;;1.73;;
54388;SDS011;40975;50.390;8.640;2023-03-16T02:03:50;4.55;;;1.65;;
54388;SDS011;40975;50.390;8.640;2023-03-16T02:06:21;5.43;;;1.48;;
54388;SDS011;40975;50.390;8.640;2023-03-16T02:08:51;7.18;;;1.63;;
54388;SDS011;40975;50.390;8.640;2023-03-16T02:11:19;5.28;;;1.95;;
54388;SDS011;40975;50.390;8.640;2023-03-16T02:14:06;4.13;;;1.67;;
54388;SDS011;40975;50.390;8.640;2023-03-16T02:16:34;3.47;;;1.85;;
54388;SDS011;40975;50.390;8.640;2023-03-16T02:19:00;2.88;;;1.58;;
54388;SDS011;40975;50.390;8.640;2023-03-16T02:24:00;3.33;;;1.55;;
54388;SDS011;40975;50.390;8.640;2023-03-16T02:29:40;5.25;;;1.80;;
54388;SDS011;40975;50.390;8.640;2023-03-16T02:32:06;2.95;;;1.65;;
54388;SDS011;40975;50.390;8.640;2023-03-16T02:34:32;2.92;;;1.63;;
54388;SDS011;40975;50.390;8.640;2023-03-16T02:36:57;6.63;;;1.92;;
54388;SDS011;40975;50.390;8.640;2023-03-16T02:39:26;3.35;;;1.80;;
54388;SDS011;40975;50.390;8.640;2023-03-16T02:41:51;3.17;;;1.48;;
54388;SDS011;40975;50.390;8.640;2023-03-16T02:44:26;2.25;;;1.50;;
54388;SDS011;40975;50.390;8.640;2023-03-16T02:49:37;2.40;;;1.45;;
54388;SDS011;40975;50.390;8.640;2023-03-16T02:52:06;2.00;;;1.50;;
54388;SDS011;40975;50.390;8.640;2023-03-16T02:54:32;2.28;;;1.63;;
54388;SDS011;40975;50.390;8.640;2023-03-16T02:56:58;2.97;;;1.20;;
54388;SDS011;40975;50.390;8.640;2023-03-16T02:59:25;2.63;;;1.63;;
54388;SDS011;40975;50.390;8.640;2023-03-16T03:01:50;4.53;;;1.77;;
54388;SDS011;40975;50.390;8.640;2023-03-16T03:04:15;2.63;;;1.33;;
54388;SDS011;40975;50.390;8.640;2023-03-16T03:06:41;3.47;;;1.73;;
54388;SDS011;40975;50.390;8.640;2023-03-16T03:09:07;3.03;;;1.65;;
54388;SDS011;40975;50.390;8.640;2023-03-16T03:11:36;2.65;;;1.35;;
54388;SDS011;40975;50.390;8.640;2023-03-16T03:14:02;3.50;;;1.55;;
54388;SDS011;40975;50.390;8.640;2023-03-16T03:16:28;5.50;;;1.48;;
54388;SDS011;40975;50.390;8.640;2023-03-16T03:18:54;2.00;;;1.50;;
54388;SDS011;40975;50.390;8.640;2023-03-16T03:21:20;3.17;;;2.05;;
54388;SDS011;40975;50.390;8.640;2023-03-16T03:23:45;3.75;;;2.10;;
54388;SDS011;40975;50.390;8.640;2023-03-16T03:26:12;3.92;;;2.22;;
54388;SDS011;40975;50.390;8.640;2023-03-16T03:28:39;2.00;;;1.40;;
54388;SDS011;40975;50.390;8.640;2023-03-16T03:31:05;2.65;;;1.88;;
54388;SDS011;40975;50.390;8.640;2023-03-16T03:33:32;4.90;;;2.10;;
54388;SDS011;40975;50.390;8.640;2023-03-16T03:35:58;3.55;;;2.03;;
54388;SDS011;40975;50.390;8.640;2023-03-16T03:38:28;3.88;;;2.17;;
54388;SDS011;40975;50.390;8.640;2023-03-16T03:40:54;4.38;;;2.55;;
54388;SDS011;40975;50.390;8.640;2023-03-16T03:43:25;6.82;;;2.42;;
54388;SDS011;40975;50.390;8.640;2023-03-16T03:45:54;5.88;;;2.72;;
54388;SDS011;40975;50.390;8.640;2023-03-16T03:48:24;4.25;;;2.30;;
54388;SDS011;40975;50.390;8.640;2023-03-16T03:50:50;8.27;;;2.80;;
54388;SDS011;40975;50.390;8.640;2023-03-16T03:53:31;4.18;;;2.35;;
54388;SDS011;40975;50.390;8.640;2023-03-16T03:56:10;8.90;;;2.60;;
54388;SDS011;40975;50.390;8.640;2023-03-16T03:58:37;6.65;;;2.42;;
54388;SDS011;40975;50.390;8.640;2023-03-16T04:01:02;3.50;;;1.98;;
54388;SDS011;40975;50.390;8.640;2023-03-16T04:03:29;5.95;;;2.70;;
54388;SDS011;40975;50.390;8.640;2023-03-16T04:05:55;6.03;;;1.95;;
54388;SDS011;40975;50.390;8.640;2023-03-16T04:08:21;4.53;;;2.45;;
54388;SDS011;40975;50.390;8.640;2023-03-16T04:10:47;5.10;;;2.40;;
54388;SDS011;40975;50.390;8.640;2023-03-16T04:13:13;4.60;;;2.28;;
54388;SDS011;40975;50.390;8.640;2023-03-16T04:15:38;6.28;;;2.95;;
54388;SDS011;40975;50.390;8.640;2023-03-16T04:18:12;3.90;;;2.40;;
54388;SDS011;40975;50.390;8.640;2023-03-16T04:20:38;8.95;;;3.30;;
54388;SDS011;40975;50.390;8.640;2023-03-16T04:23:04;6.63;;;2.13;;
54388;SDS011;40975;50.390;8.640;2023-03-16T04:25:31;3.25;;;2.03;;
54388;SDS011;40975;50.390;8.640;2023-03-16T04:27:57;6.03;;;2.35;;
54388;SDS011;40975;50.390;8.640;2023-03-16T04:30:26;6.03;;;2.28;;
54388;SDS011;40975;50.390;8.640;2023-03-16T04:33:00;4.20;;;2.17;;
54388;SDS011;40975;50.390;8.640;2023-03-16T04:35:26;4.82;;;2.40;;
54388;SDS011;40975;50.390;8.640;2023-03-16T04:37:54;4.07;;;2.30;;
54388;SDS011;40975;50.390;8.640;2023-03-16T04:40:25;6.23;;;2.70;;
54388;SDS011;40975;50.390;8.640;2023-03-16T04:42:59;3.97;;;2.20;;
54388;SDS011;40975;50.390;8.640;2023-03-16T04:45:25;8.13;;;2.83;;
54388;SDS011;40975;50.390;8.640;2023-03-16T04:47:53;4.45;;;2.58;;
54388;SDS011;40975;50.390;8.640;2023-03-16T04:50:19;4.07;;;2.65;;
54388;SDS011;40975;50.390;8.640;2023-03-16T04:52:49;3.72;;;2.15;;
54388;SDS011;40975;50.390;8.640;2023-03-16T04:55:15;6.28;;;3.08;;
54388;SDS011;40975;50.390;8.640;2023-03-16T04:57:42;4.95;;;2.13;;
54388;SDS011;40975;50.390;8.640;2023-03-16T05:00:07;5.90;;;2.83;;
54388;SDS011;40975;50.390;8.640;2023-03-16T05:02:39;6.28;;;3.40;;
54388;SDS011;40975;50.390;8.640;2023-03-16T05:05:05;4.13;;;1.98;;
54388;SDS011;40975;50.390;8.640;2023-03-16T05:07:31;5.35;;;2.63;;
54388;SDS011;40975;50.390;8.640;2023-03-16T05:09:57;9.13;;;2.88;;
54388;SDS011;40975;50.390;8.640;2023-03-16T05:12:22;4.75;;;2.80;;
54388;SDS011;40975;50.390;8.640;2023-03-16T05:14:52;5.78;;;2.08;;
54388;SDS011;40975;50.390;8.640;2023-03-16T05:17:23;5.43;;;2.78;;
54388;SDS011;40975;50.390;8.640;2023-03-16T05:19:49;3.80;;;1.90;;
54388;SDS011;40975;50.390;8.640;2023-03-16T05:22:15;5.07;;;2.15;;
54388;SDS011;40975;50.390;8.640;2023-03-16T05:25:00;4.55;;;2.10;;
54388;SDS011;40975;50.390;8.640;2023-03-16T05:27:28;5.20;;;2.28;;
54388;SDS011;40975;50.390;8.640;2023-03-16T05:29:54;4.90;;;1.85;;
54388;SDS011;40975;50.390;8.640;2023-03-16T05:32:20;5.38;;;2.50;;
54388;SDS011;40975;50.390;8.640;2023-03-16T05:34:45;5.75;;;2.22;;
54388;SDS011;40975;50.390;8.640;2023-03-16T05:37:11;4.70;;;1.92;;
54388;SDS011;40975;50.390;8.640;2023-03-16T05:39:36;6.03;;;1.88;;
54388;SDS011;40975;50.390;8.640;2023-03-16T05:42:02;4.40;;;2.13;;
54388;SDS011;40975;50.390;8.640;2023-03-16T05:44:37;6.75;;;2.25;;
54388;SDS011;40975;50.390;8.640;2023-03-16T05:47:22;7.20;;;2.80;;
54388;SDS011;40975;50.390;8.640;2023-03-16T05:49:53;4.22;;;2.47;;
54388;SDS011;40975;50.390;8.640;2023-03-16T05:52:28;5.35;;;3.17;;
54388;SDS011;40975;50.390;8.640;2023-03-16T05:54:56;4.18;;;2.60;;
54388;SDS011;40975;50.390;8.640;2023-03-16T05:57:21;4.72;;;2.63;;
54388;SDS011;40975;50.390;8.640;2023-03-16T05:59:49;5.22;;;2.33;;
54388;SDS011;40975;50.390;8.640;2023-03-16T06:02:15;7.55;;;3.22;;
54388;SDS011;40975;50.390;8.640;2023-03-16T06:04:40;5.88;;;2.40;;
54388;SDS011;40975;50.390;8.640;2023-03-16T06:07:06;7.30;;;3.63;;
54388;SDS011;40975;50.390;8.640;2023-03-16T06:09:32;6.07;;;3.42;;
54388;SDS011;40975;50.390;8.640;2023-03-16T06:11:59;6.95;;;3.50;;
54388;SDS011;40975;50.390;8.640;2023-03-16T06:14:24;8.15;;;3.33;;
54388;SDS011;40975;50.390;8.640;2023-03-16T06:16:51;6.03;;;3.25;;
54388;SDS011;40975;50.390;8.640;2023-03-16T06:19:16;6.43;;;2.95;;
54388;SDS011;40975;50.390;8.640;2023-03-16T06:21:43;5.00;;;3.38;;
54388;SDS011;40975;50.390;8.640;2023-03-16T06:24:10;8.57;;;3.22;;
54388;SDS011;40975;50.390;8.640;2023-03-16T06:26:35;6.63;;;2.85;;
54388;SDS011;40975;50.390;8.640;2023-03-16T06:29:03;6.95;;;3.03;;
54388;SDS011;40975;50.390;8.640;2023-03-16T06:31:32;4.68;;;2.72;;
54388;SDS011;40975;50.390;8.640;2023-03-16T06:33:59;5.63;;;3.20;;
54388;SDS011;40975;50.390;8.640;2023-03-16T06:36:25;8.73;;;3.15;;
54388;SDS011;40975;50.390;8.640;2023-03-16T06:38:54;7.10;;;3.03;;
54388;SDS011;40975;50.390;8.640;2023-03-16T06:41:27;7.10;;;3.65;;
54388;SDS011;40975;50.390;8.640;2023-03-16T06:43:52;7.00;;;3.00;;
54388;SDS011;40975;50.390;8.640;2023-03-16T06:46:18;8.48;;;3.42;;
54388;SDS011;40975;50.390;8.640;2023-03-16T06:48:44;5.28;;;2.90;;
54388;SDS011;40975;50.390;8.640;2023-03-16T06:51:11;10.10;;;4.00;;
54388;SDS011;40975;50.390;8.640;2023-03-16T06:53:36;6.30;;;3.60;;
54388;SDS011;40975;50.390;8.640;2023-03-16T06:56:02;8.85;;;3.42;;
54388;SDS011;40975;50.390;8.640;2023-03-16T06:58:30;8.18;;;3.90;;
54388;SDS011;40975;50.390;8.640;2023-03-16T07:00:55;6.60;;;3.47;;
54388;SDS011;40975;50.390;8.640;2023-03-16T07:03:21;7.80;;;3.13;;
54388;SDS011;40975;50.390;8.640;2023-03-16T07:05:53;9.80;;;3.13;;
54388;SDS011;40975;50.390;8.640;2023-03-16T07:08:18;4.28;;;2.58;;
54388;SDS011;40975;50.390;8.640;2023-03-16T07:10:44;5.00;;;2.50;;
54388;SDS011;40975;50.390;8.640;2023-03-16T07:13:09;4.68;;;2.38;;
54388;SDS011;40975;50.390;8.640;2023-03-16T07:15:35;7.07;;;3.33;;
54388;SDS011;40975;50.390;8.640;2023-03-16T07:18:01;11.10;;;4.80;;
54388;SDS011;40975;50.390;8.640;2023-03-16T07:20:27;9.32;;;4.40;;
54388;SDS011;40975;50.390;8.640;2023-03-16T07:22:55;5.68;;;2.97;;
54388;SDS011;40975;50.390;8.640;2023-03-16T07:25:21;4.85;;;2.15;;
54388;SDS011;40975;50.390;8.640;2023-03-16T07:27:51;6.07;;;2.55;;
54388;SDS011;40975;50.390;8.640;2023-03-16T07:30:22;5.32;;;2.80;;
54388;SDS011;40975;50.390;8.640;2023-03-16T07:32:50;3.97;;;2.40;;
54388;SDS011;40975;50.390;8.640;2023-03-16T07:35:17;5.30;;;2.65;;
54388;SDS011;40975;50.390;8.640;2023-03-16T07:37:43;7.45;;;2.97;;
54388;SDS011;40975;50.390;8.640;2023-03-16T07:40:09;4.57;;;3.00;;
54388;SDS011;40975;50.390;8.640;2023-03-16T07:42:35;6.20;;;3.05;;
54388;SDS011;40975;50.390;8.640;2023-03-16T07:45:06;4.43;;;2.67;;
54388;SDS011;40975;50.390;8.640;2023-03-16T07:47:33;5.00;;;2.83;;
54388;SDS011;40975;50.390;8.640;2023-03-16T07:50:07;6.47;;;2.97;;
54388;SDS011;40975;50.390;8.640;2023-03-16T07:52:33;4.95;;;2.72;;
54388;SDS011;40975;50.390;8.640;2023-03-16T07:54:59;4.70;;;2.75;;
54388;SDS011;40975;50.390;8.640;2023-03-16T07:57:24;5.68;;;3.40;;
54388;SDS011;40975;50.390;8.640;2023-03-16T07:59:51;5.80;;;2.95;;
54388;SDS011;40975;50.390;8.640;2023-03-16T08:02:17;5.22;;;3.35;;
54388;SDS011;40975;50.390;8.640;2023-03-16T08:04:44;5.82;;;3.55;;
54388;SDS011;40975;50.390;8.640;2023-03-16T08:07:12;4.65;;;2.95;;
54388;SDS011;40975;50.390;8.640;2023-03-16T08:09:56;6.57;;;3.13;;
54388;SDS011;40975;50.390;8.640;2023-03-16T08:12:27;4.43;;;2.92;;
54388;SDS011;40975;50.390;8.640;2023-03-16T08:14:53;6.32;;;3.22;;
54388;SDS011;40975;50.390;8.640;2023-03-16T08:17:26;3.70;;;2.63;;
54388;SDS011;40975;50.390;8.640;2023-03-16T08:19:52;6.90;;;3.55;;
54388;SDS011;40975;50.390;8.640;2023-03-16T08:22:18;5.22;;;3.30;;
54388;SDS011;40975;50.390;8.640;2023-03-16T08:24:45;4.65;;;2.88;;
54388;SDS011;40975;50.390;8.640;2023-03-16T08:27:12;7.95;;;2.90;;
54388;SDS011;40975;50.390;8.640;2023-03-16T08:29:43;5.50;;;3.55;;
54388;SDS011;40975;50.390;8.640;2023-03-16T08:32:12;6.95;;;4.15;;
54388;SDS011;40975;50.390;8.640;2023-03-16T08:34:41;5.50;;;3.10;;
54388;SDS011;40975;50.390;8.640;2023-03-16T08:37:07;4.70;;;3.00;;
54388;SDS011;40975;50.390;8.640;2023-03-16T08:39:34;4.90;;;2.80;;
54388;SDS011;40975;50.390;8.640;2023-03-16T08:42:03;5.50;;;3.50;;
54388;SDS011;40975;50.390;8.640;2023-03-16T08:44:40;6.38;;;3.10;;
54388;SDS011;40975;50.390;8.640;2023-03-16T08:47:06;6.50;;;3.42;;
54388;SDS011;40975;50.390;8.640;2023-03-16T08:49:33;4.15;;;3.25;;
54388;SDS011;40975;50.390;8.640;2023-03-16T08:52:09;4.43;;;3.13;;
54388;SDS011;40975;50.390;8.640;2023-03-16T08:54:35;5.85;;;3.13;;
54388;SDS011;40975;50.390;8.640;2023-03-16T08:57:01;4.63;;;3.08;;
54388;SDS011;40975;50.390;8.640;2023-03-16T08:59:26;4.28;;;2.70;;
54388;SDS011;40975;50.390;8.640;2023-03-16T09:01:52;6.85;;;3.20;;
54388;SDS011;40975;50.390;8.640;2023-03-16T09:04:18;4.10;;;3.03;;
54388;SDS011;40975;50.390;8.640;2023-03-16T09:06:45;4.88;;;3.50;;
54388;SDS011;40975;50.390;8.640;2023-03-16T09:09:11;4.82;;;3.30;;
54388;SDS011;40975;50.390;8.640;2023-03-16T09:11:37;4.88;;;3.30;;
54388;SDS011;40975;50.390;8.640;2023-03-16T09:14:03;4.85;;;3.78;;
54388;SDS011;40975;50.390;8.640;2023-03-16T09:16:28;4.45;;;3.45;;
54388;SDS011;40975;50.390;8.640;2023-03-16T09:18:55;4.65;;;3.47;;
54388;SDS011;40975;50.390;8.640;2023-03-16T09:21:20;5.38;;;3.80;;
54388;SDS011;40975;50.390;8.640;2023-03-16T09:23:45;4.28;;;3.70;;
54388;SDS011;40975;50.390;8.640;2023-03-16T09:26:11;6.43;;;3.63;;
54388;SDS011;40975;50.390;8.640;2023-03-16T09:28:37;4.68;;;3.22;;
54388;SDS011;40975;50.390;8.640;2023-03-16T09:31:06;5.20;;;3.58;;
54388;SDS011;40975;50.390;8.640;2023-03-16T09:33:33;5.45;;;4.05;;
54388;SDS011;40975;50.390;8.640;2023-03-16T09:35:59;5.60;;;4.10;;
54388;SDS011;40975;50.390;8.640;2023-03-16T09:38:25;4.65;;;3.72;;
54388;SDS011;40975;50.390;8.640;2023-03-16T09:44:01;6.22;;;3.92;;
54388;SDS011;40975;50.390;8.640;2023-03-16T09:46:44;4.35;;;3.28;;
54388;SDS011;40975;50.390;8.640;2023-03-16T09:49:13;5.03;;;3.70;;
54388;SDS011;40975;50.390;8.640;2023-03-16T09:51:43;4.95;;;3.80;;
54388;SDS011;40975;50.390;8.640;2023-03-16T09:54:35;4.72;;;3.38;;
54388;SDS011;40975;50.390;8.640;2023-03-16T09:57:14;6.78;;;4.10;;
54388;SDS011;40975;50.390;8.640;2023-03-16T09:59:50;6.63;;;4.03;;
54388;SDS011;40975;50.390;8.640;2023-03-16T10:05:08;5.70;;;3.75;;
54388;SDS011;40975;50.390;8.640;2023-03-16T10:10:34;4.57;;;3.42;;
54388;SDS011;40975;50.390;8.640;2023-03-16T10:13:03;5.75;;;3.95;;
54388;SDS011;40975;50.390;8.640;2023-03-16T10:15:38;6.50;;;3.67;;
54388;SDS011;40975;50.390;8.640;2023-03-16T10:18:17;5.80;;;3.60;;
54388;SDS011;40975;50.390;8.640;2023-03-16T10:20:47;5.47;;;3.88;;
54388;SDS011;40975;50.390;8.640;2023-03-16T10:23:17;5.25;;;3.60;;
54388;SDS011;40975;50.390;8.640;2023-03-16T10:25:46;5.55;;;3.63;;
54388;SDS011;40975;50.390;8.640;2023-03-16T10:28:20;5.78;;;3.80;;
54388;SDS011;40975;50.390;8.640;2023-03-16T10:30:48;5.53;;;3.90;;
54388;SDS011;40975;50.390;8.640;2023-03-16T10:33:23;4.70;;;3.40;;
54388;SDS011;40975;50.390;8.640;2023-03-16T10:41:03;4.88;;;3.40;;
54388;SDS011;40975;50.390;8.640;2023-03-16T10:43:30;3.97;;;3.05;;
54388;SDS011;40975;50.390;8.640;2023-03-16T10:46:02;5.78;;;3.45;;
54388;SDS011;40975;50.390;8.640;2023-03-16T10:48:29;4.75;;;3.20;;
54388;SDS011;40975;50.390;8.640;2023-03-16T10:50:57;4.20;;;2.97;;
54388;SDS011;40975;50.390;8.640;2023-03-16T10:53:27;6.07;;;3.00;;
54388;SDS011;40975;50.390;8.640;2023-03-16T10:55:59;5.47;;;3.10;;
54388;SDS011;40975;50.390;8.640;2023-03-16T10:58:30;4.60;;;3.33;;
54388;SDS011;40975;50.390;8.640;2023-03-16T11:00:58;4.32;;;3.15;;
54388;SDS011;40975;50.390;8.640;2023-03-16T11:03:31;4.00;;;2.97;;
54388;SDS011;40975;50.390;8.640;2023-03-16T11:06:04;4.30;;;3.00;;
54388;SDS011;40975;50.390;8.640;2023-03-16T11:08:37;3.83;;;2.78;;
54388;SDS011;40975;50.390;8.640;2023-03-16T11:11:07;4.22;;;2.90;;
54388;SDS011;40975;50.390;8.640;2023-03-16T11:13:49;3.55;;;2.67;;
54388;SDS011;40975;50.390;8.640;2023-03-16T11:16:26;4.63;;;2.92;;
54388;SDS011;40975;50.390;8.640;2023-03-16T11:19:02;5.30;;;3.20;;
54388;SDS011;40975;50.390;8.640;2023-03-16T11:24:54;6.07;;;3.38;;
54388;SDS011;40975;50.390;8.640;2023-03-16T11:27:36;3.20;;;2.72;;
54388;SDS011;40975;50.390;8.640;2023-03-16T11:30:52;6.28;;;3.08;;
54388;SDS011;40975;50.390;8.640;2023-03-16T11:33:25;4.38;;;2.80;;
54388;SDS011;40975;50.390;8.640;2023-03-16T11:36:08;3.53;;;2.85;;
54388;SDS011;40975;50.390;8.640;2023-03-16T11:39:09;4.70;;;3.10;;
54388;SDS011;40975;50.390;8.640;2023-03-16T11:52:57;3.78;;;3.00;;
54388;SDS011;40975;50.390;8.640;2023-03-16T12:04:27;3.42;;;2.70;;
54388;SDS011;40975;50.390;8.640;2023-03-16T12:06:57;5.60;;;3.42;;
54388;SDS011;40975;50.390;8.640;2023-03-16T12:14:49;5.20;;;2.60;;
54388;SDS011;40975;50.390;8.640;2023-03-16T12:17:27;3.60;;;2.50;;
54388;SDS011;40975;50.390;8.640;2023-03-16T12:22:26;3.67;;;2.90;;
54388;SDS011;40975;50.390;8.640;2023-03-16T12:24:56;3.83;;;2.75;;
54388;SDS011;40975;50.390;8.640;2023-03-16T12:27:31;5.25;;;2.60;;
54388;SDS011;40975;50.390;8.640;2023-03-16T12:30:06;4.15;;;3.05;;
54388;SDS011;40975;50.390;8.640;2023-03-16T12:32:54;11.52;;;3.40;;
54388;SDS011;40975;50.390;8.640;2023-03-16T12:35:38;6.63;;;3.03;;
54388;SDS011;40975;50.390;8.640;2023-03-16T12:41:05;3.80;;;2.70;;
54388;SDS011;40975;50.390;8.640;2023-03-16T12:46:35;3.22;;;2.60;;
54388;SDS011;40975;50.390;8.640;2023-03-16T12:49:10;3.55;;;2.83;;
54388;SDS011;40975;50.390;8.640;2023-03-16T12:51:37;4.97;;;2.70;;
54388;SDS011;40975;50.390;8.640;2023-03-16T12:54:05;4.00;;;2.83;;
54388;SDS011;40975;50.390;8.640;2023-03-16T12:56:50;6.47;;;3.20;;
54388;SDS011;40975;50.390;8.640;2023-03-16T12:59:21;3.35;;;2.70;;
54388;SDS011;40975;50.390;8.640;2023-03-16T13:01:52;4.00;;;3.08;;
54388;SDS011;40975;50.390;8.640;2023-03-16T13:04:37;5.15;;;3.25;;
54388;SDS011;40975;50.390;8.640;2023-03-16T13:07:06;5.38;;;3.38;;
54388;SDS011;40975;50.390;8.640;2023-03-16T13:09:39;4.63;;;3.20;;
54388;SDS011;40975;50.390;8.640;2023-03-16T13:12:08;4.45;;;2.90;;
54388;SDS011;40975;50.390;8.640;2023-03-16T13:14:41;5.78;;;3.63;;
54388;SDS011;40975;50.390;8.640;2023-03-16T13:19:39;4.88;;;3.10;;
54388;SDS011;40975;50.390;8.640;2023-03-16T13:25:33;5.18;;;3.45;;
54388;SDS011;40975;50.390;8.640;2023-03-16T13:27:37;4.65;;;3.20;;
54388;SDS011;40975;50.390;8.640;2023-03-16T13:30:18;5.20;;;2.92;;
54388;SDS011;40975;50.390;8.640;2023-03-16T13:32:46;6.47;;;3.65;;
54388;SDS011;40975;50.390;8.640;2023-03-16T13:35:13;5.72;;;3.58;;
54388;SDS011;40975;50.390;8.640;2023-03-16T13:37:41;6.30;;;3.50;;
54388;SDS011;40975;50.390;8.640;2023-03-16T13:42:51;5.35;;;3.45;;
54388;SDS011;40975;50.390;8.640;2023-03-16T13:45:23;4.55;;;2.92;;
54388;SDS011;40975;50.390;8.640;2023-03-16T13:47:58;5.75;;;3.30;;
54388;SDS011;40975;50.390;8.640;2023-03-16T13:50:25;6.22;;;3.10;;
54388;SDS011;40975;50.390;8.640;2023-03-16T13:52:57;3.45;;;2.60;;
54388;SDS011;40975;50.390;8.640;2023-03-16T13:55:29;4.80;;;2.90;;
54388;SDS011;40975;50.390;8.640;2023-03-16T13:57:56;6.43;;;3.85;;
54388;SDS011;40975;50.390;8.640;2023-03-16T14:00:23;5.93;;;3.53;;
54388;SDS011;40975;50.390;8.640;2023-03-16T14:02:51;5.45;;;3.15;;
54388;SDS011;40975;50.390;8.640;2023-03-16T14:05:25;4.78;;;3.03;;
54388;SDS011;40975;50.390;8.640;2023-03-16T14:07:57;6.30;;;3.22;;
54388;SDS011;40975;50.390;8.640;2023-03-16T14:10:26;6.57;;;3.22;;
54388;SDS011;40975;50.390;8.640;2023-03-16T14:13:05;4.65;;;3.10;;
54388;SDS011;40975;50.390;8.640;2023-03-16T14:15:32;4.45;;;3.25;;
54388;SDS011;40975;50.390;8.640;2023-03-16T14:18:07;5.80;;;3.60;;
54388;SDS011;40975;50.390;8.640;2023-03-16T14:20:38;5.85;;;3.70;;
54388;SDS011;40975;50.390;8.640;2023-03-16T14:23:04;4.47;;;3.00;;
54388;SDS011;40975;50.390;8.640;2023-03-16T14:25:39;6.10;;;3.05;;
54388;SDS011;40975;50.390;8.640;2023-03-16T14:28:05;4.82;;;2.72;;
54388;SDS011;40975;50.390;8.640;2023-03-16T14:30:31;4.40;;;2.72;;
54388;SDS011;40975;50.390;8.640;2023-03-16T14:32:58;6.22;;;3.13;;
54388;SDS011;40975;50.390;8.640;2023-03-16T14:35:32;4.82;;;3.10;;
54388;SDS011;40975;50.390;8.640;2023-03-16T14:40:53;5.43;;;3.22;;
54388;SDS011;40975;50.390;8.640;2023-03-16T14:43:22;5.75;;;2.78;;
54388;SDS011;40975;50.390;8.640;2023-03-16T14:45:53;5.97;;;2.95;;
54388;SDS011;40975;50.390;8.640;2023-03-16T14:48:18;4.10;;;2.70;;
54388;SDS011;40975;50.390;8.640;2023-03-16T14:50:46;4.57;;;3.25;;
54388;SDS011;40975;50.390;8.640;2023-03-16T14:53:16;6.07;;;3.45;;
54388;SDS011;40975;50.390;8.640;2023-03-16T14:55:42;4.93;;;3.20;;
54388;SDS011;40975;50.390;8.640;2023-03-16T14:58:07;5.88;;;3.63;;
54388;SDS011;40975;50.390;8.640;2023-03-16T15:00:33;4.15;;;3.20;;
54388;SDS011;40975;50.390;8.640;2023-03-16T15:03:06;5.57;;;2.97;;
54388;SDS011;40975;50.390;8.640;2023-03-16T15:05:39;5.43;;;3.47;;
54388;SDS011;40975;50.390;8.640;2023-03-16T15:08:13;5.35;;;3.20;;
54388;SDS011;40975;50.390;8.640;2023-03-16T15:10:43;5.63;;;3.65;;
54388;SDS011;40975;50.390;8.640;2023-03-16T15:13:12;7.93;;;3.45;;
54388;SDS011;40975;50.390;8.640;2023-03-16T15:15:41;7.38;;;2.85;;
54388;SDS011;40975;50.390;8.640;2023-03-16T15:18:07;4.20;;;3.08;;
54388;SDS011;40975;50.390;8.640;2023-03-16T15:20:33;6.57;;;3.83;;
54388;SDS011;40975;50.390;8.640;2023-03-16T15:23:03;5.10;;;2.67;;
54388;SDS011;40975;50.390;8.640;2023-03-16T15:30:47;4.88;;;2.72;;
54388;SDS011;40975;50.390;8.640;2023-03-16T15:33:15;4.07;;;2.83;;
54388;SDS011;40975;50.390;8.640;2023-03-16T15:35:41;3.90;;;2.67;;
54388;SDS011;40975;50.390;8.640;2023-03-16T15:38:18;4.30;;;2.55;;
54388;SDS011;40975;50.390;8.640;2023-03-16T15:40:46;4.80;;;2.30;;
54388;SDS011;40975;50.390;8.640;2023-03-16T15:43:15;6.85;;;2.70;;
54388;SDS011;40975;50.390;8.640;2023-03-16T15:45:45;3.67;;;2.90;;
54388;SDS011;40975;50.390;8.640;2023-03-16T15:48:12;4.75;;;2.90;;
54388;SDS011;40975;50.390;8.640;2023-03-16T15:50:38;4.90;;;2.67;;
54388;SDS011;40975;50.390;8.640;2023-03-16T15:53:21;5.57;;;3.05;;
54388;SDS011;40975;50.390;8.640;2023-03-16T15:55:51;4.45;;;2.70;;
54388;SDS011;40975;50.390;8.640;2023-03-16T15:58:22;4.05;;;2.70;;
54388;SDS011;40975;50.390;8.640;2023-03-16T16:00:54;3.78;;;2.97;;
54388;SDS011;40975;50.390;8.640;2023-03-16T16:03:21;5.00;;;2.65;;
54388;SDS011;40975;50.390;8.640;2023-03-16T16:05:48;4.13;;;2.38;;
54388;SDS011;40975;50.390;8.640;2023-03-16T16:08:13;4.72;;;2.38;;
54388;SDS011;40975;50.390;8.640;2023-03-16T16:10:39;3.17;;;2.22;;
54388;SDS011;40975;50.390;8.640;2023-03-16T16:13:08;3.53;;;2.40;;
54388;SDS011;40975;50.390;8.640;2023-03-16T16:15:38;5.90;;;2.92;;
54388;SDS011;40975;50.390;8.640;2023-03-16T16:18:25;3.58;;;2.72;;
54388;SDS011;40975;50.390;8.640;2023-03-16T16:20:54;4.43;;;2.72;;
54388;SDS011;40975;50.390;8.640;2023-03-16T16:23:21;4.47;;;2.30;;
54388;SDS011;40975;50.390;8.640;2023-03-16T16:25:47;3.95;;;2.72;;